Time;durP1;ratioP1;P1;durP2;ratioP2;P2;SDS_P1;SDS_P2;PMS_P1;PMS_P2;Temp;Humidity;BMP_temperature;BMP_pressure;BME280_temperature;BME280_humidity;BME280_pressure;Samples;Min_cycle;Max_cycle;Signal;HPM_P1;HPM_P2
2022/01/02 00:00:40;;;;;;;0.40;0.40;;;8.20;99.90;;;;;;5010851;28;20391;-69
2022/01/02 00:03:08;;;;;;;1.42;1.02;;;8.20;99.90;;;;;;5010991;28;20041;-70
2022/01/02 00:05:38;;;;;;;0.35;0.32;;;8.20;99.90;;;;;;5012078;28;20485;-70
2022/01/02 00:08:07;;;;;;;0.17;0.17;;;8.30;99.90;;;;;;5026841;28;20136;-70
2022/01/02 00:10:48;;;;;;;1.85;0.47;;;8.20;99.90;;;;;;5011979;28;20394;-70
2022/01/02 00:13:23;;;;;;;11.10;1.00;;;8.20;99.90;;;;;;5011007;28;20471;-70
2022/01/02 00:15:55;;;;;;;0.32;0.30;;;8.20;99.90;;;;;;5026534;28;20029;-70
2022/01/02 00:18:21;;;;;;;0.85;0.77;;;8.30;99.90;;;;;;5026604;28;20038;-70
2022/01/02 00:20:48;;;;;;;2.55;1.30;;;8.20;99.90;;;;;;5017023;28;20030;-70
2022/01/02 00:23:20;;;;;;;0.15;0.15;;;8.30;99.90;;;;;;5030566;28;20053;-70
2022/01/02 00:25:53;;;;;;;0.00;0.00;;;8.30;99.90;;;;;;5031836;28;20026;-70
2022/01/02 00:28:19;;;;;;;0.30;0.30;;;8.30;99.90;;;;;;5030429;28;20037;-70
2022/01/02 00:30:47;;;;;;;0.10;0.10;;;8.30;99.90;;;;;;5031249;28;20060;-70
2022/01/02 00:33:13;;;;;;;0.82;0.82;;;8.30;99.90;;;;;;5034498;28;20033;-70
2022/01/02 00:35:39;;;;;;;0.25;0.25;;;8.20;99.90;;;;;;5035463;28;20082;-69
2022/01/02 00:38:07;;;;;;;0.85;0.85;;;8.30;99.90;;;;;;5035748;28;20033;-70
2022/01/02 00:40:40;;;;;;;0.73;0.52;;;8.30;99.90;;;;;;5034242;28;20026;-70
2022/01/02 00:43:13;;;;;;;0.80;0.80;;;8.30;99.90;;;;;;5035214;28;20466;-69
2022/01/02 00:45:46;;;;;;;0.15;0.15;;;8.30;99.90;;;;;;5034383;28;20033;-71
2022/01/02 00:48:24;;;;;;;0.35;0.35;;;8.20;99.90;;;;;;5033903;28;20069;-71
2022/01/02 00:51:01;;;;;;;2.08;1.75;;;8.30;99.90;;;;;;5034947;28;20038;-72
2022/01/02 00:53:36;;;;;;;1.33;1.23;;;8.20;99.90;;;;;;5034438;28;20030;-71
2022/01/02 00:56:04;;;;;;;0.10;0.10;;;8.20;99.90;;;;;;5035313;28;20029;-71
2022/01/02 00:58:56;;;;;;;2.08;1.35;;;8.20;99.90;;;;;;5034073;28;20026;-71
2022/01/02 01:01:32;;;;;;;0.43;0.43;;;8.30;99.90;;;;;;5034929;28;20037;-71
2022/01/02 01:04:00;;;;;;;0.20;0.20;;;8.20;99.90;;;;;;5033882;28;20120;-70
2022/01/02 01:06:31;;;;;;;0.93;0.93;;;8.30;99.90;;;;;;5033570;28;20033;-71
2022/01/02 01:09:05;;;;;;;0.47;0.47;;;8.30;99.90;;;;;;5033626;28;20128;-70
2022/01/02 01:11:31;;;;;;;0.65;0.65;;;8.20;99.90;;;;;;5033736;28;20440;-70
2022/01/02 01:13:59;;;;;;;0.70;0.57;;;8.30;99.90;;;;;;5035184;28;20025;-70
2022/01/02 01:16:26;;;;;;;0.47;0.47;;;8.20;99.90;;;;;;5033410;28;20037;-71
2022/01/02 01:18:51;;;;;;;0.20;0.20;;;8.30;99.90;;;;;;5034563;28;20175;-70
2022/01/02 01:21:17;;;;;;;0.90;0.80;;;8.30;99.90;;;;;;5034577;28;20112;-70
2022/01/02 01:23:43;;;;;;;0.95;0.95;;;8.30;99.90;;;;;;5033658;28;20029;-70
2022/01/02 01:26:11;;;;;;;0.10;0.10;;;8.30;99.90;;;;;;5034728;28;20371;-70
2022/01/02 01:28:37;;;;;;;1.02;0.80;;;8.40;99.90;;;;;;5033505;28;20063;-70
2022/01/02 01:31:04;;;;;;;14.40;0.98;;;8.30;99.90;;;;;;5034665;28;20037;-70
2022/01/02 01:33:30;;;;;;;0.50;0.50;;;8.40;99.90;;;;;;5032904;28;20454;-70
2022/01/02 01:35:55;;;;;;;0.40;0.40;;;8.40;99.90;;;;;;5034388;28;20064;-70
2022/01/02 01:38:21;;;;;;;0.57;0.57;;;8.40;99.90;;;;;;5034347;28;20506;-70
2022/01/02 01:40:58;;;;;;;0.43;0.43;;;8.50;99.90;;;;;;5034700;28;20538;-70
2022/01/02 01:43:38;;;;;;;0.35;0.35;;;8.50;99.90;;;;;;5033960;28;20080;-70
2022/01/02 01:46:05;;;;;;;3.78;2.53;;;8.50;99.90;;;;;;5034354;28;20027;-70
2022/01/02 01:48:31;;;;;;;3.95;2.22;;;8.50;99.90;;;;;;5032622;28;20046;-71
2022/01/02 01:50:57;;;;;;;0.88;0.55;;;8.60;99.90;;;;;;5033165;28;20099;-71
2022/01/02 01:53:24;;;;;;;2.08;1.27;;;8.60;99.90;;;;;;5032941;28;20057;-70
2022/01/02 01:55:51;;;;;;;1.35;0.57;;;8.60;99.90;;;;;;5034509;28;20466;-71
2022/01/02 01:58:16;;;;;;;1.15;1.13;;;8.60;99.90;;;;;;5000144;28;20029;-71
2022/01/02 02:00:43;;;;;;;0.75;0.75;;;8.50;99.90;;;;;;5016024;28;20030;-70
2022/01/02 02:03:09;;;;;;;0.98;0.57;;;8.30;99.90;;;;;;5034215;28;20041;-70
2022/01/02 02:05:35;;;;;;;1.77;1.67;;;8.20;99.90;;;;;;5032375;28;20121;-70
2022/01/02 02:08:00;;;;;;;0.17;0.17;;;8.10;99.90;;;;;;5034087;28;20501;-70
2022/01/02 02:10:28;;;;;;;4.38;1.23;;;8.00;99.90;;;;;;5033606;28;20474;-70
2022/01/02 02:12:57;;;;;;;0.50;0.50;;;8.00;99.90;;;;;;5032691;28;20084;-70
2022/01/02 02:15:24;;;;;;;3.10;1.45;;;8.00;99.90;;;;;;5032592;28;20572;-70
2022/01/02 02:17:51;;;;;;;0.50;0.50;;;7.90;99.90;;;;;;5016288;28;20033;-70
2022/01/02 02:20:28;;;;;;;1.23;1.17;;;7.90;99.90;;;;;;5033410;28;20022;-70
2022/01/02 02:22:56;;;;;;;0.80;0.45;;;7.80;99.90;;;;;;5032496;28;20032;-70
2022/01/02 02:25:30;;;;;;;1.08;1.05;;;7.90;99.90;;;;;;5032224;28;20029;-70
2022/01/02 02:28:01;;;;;;;1.00;0.85;;;7.80;99.90;;;;;;5032152;28;20057;-70
2022/01/02 02:30:30;;;;;;;0.30;0.30;;;7.80;99.90;;;;;;5032409;28;20029;-70
2022/01/02 02:32:58;;;;;;;0.10;0.10;;;7.80;99.90;;;;;;5032414;28;20030;-70
2022/01/02 02:35:26;;;;;;;0.85;0.85;;;7.80;99.90;;;;;;5033521;28;20502;-70
2022/01/02 02:37:52;;;;;;;1.50;1.45;;;7.80;99.90;;;;;;5033266;28;20037;-70
2022/01/02 02:40:21;;;;;;;0.73;0.73;;;7.80;99.90;;;;;;5033403;28;20041;-70
2022/01/02 02:42:52;;;;;;;0.75;0.75;;;7.80;99.90;;;;;;5032320;28;20057;-70
2022/01/02 02:51:25;;;;;;;2.30;1.55;;;7.70;99.90;;;;;;4991390;28;20046;-70
2022/01/02 02:53:52;;;;;;;0.10;0.10;;;7.70;99.90;;;;;;5020608;28;20047;-70
2022/01/02 02:56:27;;;;;;;0.47;0.47;;;7.70;99.90;;;;;;5031692;28;20048;-70
2022/01/02 02:58:57;;;;;;;0.75;0.75;;;7.70;99.90;;;;;;5031650;28;20091;-70
2022/01/02 03:01:26;;;;;;;1.75;1.65;;;7.70;99.90;;;;;;5031559;28;20061;-70
2022/01/02 03:03:52;;;;;;;1.30;1.25;;;7.60;99.90;;;;;;5032629;28;20036;-70
2022/01/02 03:06:19;;;;;;;0.25;0.25;;;7.70;99.90;;;;;;5031395;28;20033;-70
2022/01/02 03:08:46;;;;;;;2.58;1.40;;;7.70;99.90;;;;;;5031264;28;20030;-70
2022/01/02 03:11:15;;;;;;;0.40;0.40;;;7.70;99.90;;;;;;5031421;28;20409;-70
2022/01/02 03:13:42;;;;;;;0.98;0.98;;;7.70;99.90;;;;;;5032550;28;20067;-70
2022/01/02 03:16:10;;;;;;;0.77;0.50;;;7.80;99.90;;;;;;5032758;28;20040;-70
2022/01/02 03:18:35;;;;;;;0.10;0.10;;;7.80;99.90;;;;;;5031162;28;20030;-70
2022/01/02 03:21:02;;;;;;;0.90;0.85;;;7.80;99.90;;;;;;5031078;28;20086;-70
2022/01/02 03:23:27;;;;;;;0.60;0.60;;;7.80;99.90;;;;;;5031382;28;20039;-70
2022/01/02 03:25:53;;;;;;;0.73;0.73;;;7.70;99.90;;;;;;5032498;28;20128;-70
2022/01/02 03:28:19;;;;;;;0.50;0.50;;;7.60;99.90;;;;;;5032356;28;20444;-70
2022/01/02 03:30:45;;;;;;;0.52;0.38;;;7.60;99.90;;;;;;5030855;28;20034;-70
2022/01/02 03:33:11;;;;;;;1.75;0.85;;;7.70;99.90;;;;;;5032413;28;20033;-70
2022/01/02 03:35:37;;;;;;;0.17;0.17;;;7.70;99.90;;;;;;5030983;28;20037;-70
2022/01/02 03:38:04;;;;;;;0.10;0.10;;;7.70;99.90;;;;;;5030899;28;20052;-71
2022/01/02 03:40:30;;;;;;;1.88;1.77;;;7.70;99.90;;;;;;5030955;28;20029;-71
2022/01/02 03:42:56;;;;;;;0.55;0.55;;;7.70;99.90;;;;;;5030970;28;20034;-71
2022/01/02 03:45:22;;;;;;;0.10;0.10;;;7.80;99.90;;;;;;5014688;28;20044;-71
2022/01/02 03:47:48;;;;;;;0.90;0.90;;;7.80;99.90;;;;;;5031968;28;20049;-71
2022/01/02 03:50:15;;;;;;;0.50;0.50;;;7.90;99.90;;;;;;5031904;28;20359;-71
2022/01/02 03:52:41;;;;;;;0.22;0.22;;;7.80;99.90;;;;;;5032239;28;20025;-70
2022/01/02 03:55:08;;;;;;;0.47;0.47;;;7.80;99.90;;;;;;5030680;28;20033;-70
2022/01/02 03:57:33;;;;;;;1.70;1.10;;;7.80;99.90;;;;;;5030403;28;20114;-70
2022/01/02 03:59:59;;;;;;;0.38;0.38;;;7.80;99.90;;;;;;5030971;28;20060;-70
2022/01/02 04:02:25;;;;;;;2.85;2.65;;;7.80;99.90;;;;;;5030560;28;20481;-71
2022/01/02 04:04:51;;;;;;;1.30;0.90;;;7.80;99.90;;;;;;5031864;28;20033;-71
2022/01/02 04:07:17;;;;;;;0.75;0.73;;;7.80;99.90;;;;;;5029723;28;20026;-71
2022/01/02 04:09:43;;;;;;;0.57;0.52;;;7.80;99.90;;;;;;5031550;28;20059;-71
2022/01/02 04:12:09;;;;;;;0.35;0.35;;;7.90;99.90;;;;;;5030364;28;20559;-71
2022/01/02 04:14:34;;;;;;;0.13;0.13;;;7.80;99.90;;;;;;5031592;28;20045;-71
2022/01/02 04:17:00;;;;;;;0.17;0.17;;;7.80;99.90;;;;;;5030402;28;20030;-71
2022/01/02 04:19:26;;;;;;;0.20;0.20;;;7.90;99.90;;;;;;5031501;28;20502;-71
2022/01/02 04:21:52;;;;;;;0.68;0.68;;;7.80;99.90;;;;;;5031514;28;20033;-71
2022/01/02 04:24:17;;;;;;;0.63;0.63;;;7.80;99.90;;;;;;5031585;28;20032;-71
2022/01/02 04:26:43;;;;;;;0.63;0.63;;;7.80;99.90;;;;;;5030388;28;20064;-71
2022/01/02 04:29:09;;;;;;;1.00;0.95;;;7.80;99.90;;;;;;5030284;28;20112;-71
2022/01/02 04:31:35;;;;;;;0.13;0.13;;;7.70;99.90;;;;;;5031305;28;20067;-71
2022/01/02 04:34:01;;;;;;;0.00;0.00;;;7.70;99.90;;;;;;5031595;28;20411;-71
2022/01/02 04:36:27;;;;;;;1.10;1.10;;;7.70;99.90;;;;;;5031464;28;20040;-71
2022/01/02 04:38:52;;;;;;;0.10;0.10;;;7.70;99.90;;;;;;5014027;28;20033;-71
2022/01/02 04:41:18;;;;;;;0.38;0.38;;;7.70;99.90;;;;;;5031484;28;20034;-71
2022/01/02 04:43:44;;;;;;;0.65;0.65;;;7.70;99.90;;;;;;5031207;28;20037;-71
2022/01/02 04:46:10;;;;;;;0.28;0.28;;;7.70;99.90;;;;;;5031304;28;20057;-71
2022/01/02 04:48:35;;;;;;;1.27;1.15;;;7.70;99.90;;;;;;5029716;28;20512;-71
2022/01/02 04:51:01;;;;;;;0.45;0.45;;;7.70;99.90;;;;;;5030235;28;20132;-71
2022/01/02 04:53:27;;;;;;;0.30;0.30;;;7.60;99.90;;;;;;5031507;28;20039;-71
2022/01/02 04:55:52;;;;;;;0.20;0.20;;;7.70;99.90;;;;;;5031202;28;20079;-71
2022/01/02 04:58:21;;;;;;;0.40;0.40;;;7.60;99.90;;;;;;5029955;28;20034;-71
2022/01/02 05:00:47;;;;;;;0.52;0.52;;;7.60;99.90;;;;;;5031438;28;20036;-71
2022/01/02 05:03:13;;;;;;;0.10;0.10;;;7.60;99.90;;;;;;5031128;28;20041;-71
2022/01/02 05:05:39;;;;;;;4.85;0.75;;;7.60;99.90;;;;;;5031171;28;20056;-71
2022/01/02 05:08:05;;;;;;;0.30;0.30;;;7.60;99.90;;;;;;5031084;28;20043;-71
2022/01/02 05:10:30;;;;;;;0.00;0.00;;;7.70;99.90;;;;;;5029733;28;20030;-71
2022/01/02 05:12:56;;;;;;;0.68;0.68;;;7.70;99.90;;;;;;5013745;28;20034;-71
2022/01/02 05:15:22;;;;;;;0.80;0.80;;;7.80;99.90;;;;;;5031317;28;20108;-71
2022/01/02 05:17:48;;;;;;;2.83;1.02;;;7.80;99.90;;;;;;5031191;28;20083;-71
2022/01/02 05:20:14;;;;;;;1.05;1.05;;;7.80;99.90;;;;;;5034912;28;20065;-71
2022/01/02 05:22:40;;;;;;;1.00;1.00;;;7.80;99.90;;;;;;5034874;28;20098;-70
2022/01/02 05:25:06;;;;;;;0.88;0.85;;;7.90;99.90;;;;;;5033526;28;20041;-70
2022/01/02 05:27:32;;;;;;;0.20;0.20;;;7.90;99.90;;;;;;5034489;28;20030;-70
2022/01/02 05:29:58;;;;;;;0.10;0.10;;;8.00;99.90;;;;;;5033224;28;20211;-70
2022/01/02 05:32:23;;;;;;;0.75;0.75;;;8.10;99.90;;;;;;5034462;28;20044;-70
2022/01/02 05:34:49;;;;;;;0.40;0.40;;;8.00;99.90;;;;;;5033288;28;20398;-70
2022/01/02 05:37:18;;;;;;;0.90;0.90;;;8.00;99.90;;;;;;5033256;28;20363;-70
2022/01/02 05:39:44;;;;;;;0.00;0.00;;;7.90;99.90;;;;;;5034143;28;20025;-70
2022/01/02 05:42:09;;;;;;;1.05;0.95;;;7.80;99.90;;;;;;5034257;28;20371;-70
2022/01/02 05:44:35;;;;;;;0.30;0.30;;;7.80;99.90;;;;;;5034495;28;20040;-70
2022/01/02 05:47:01;;;;;;;0.20;0.20;;;7.80;99.90;;;;;;5034019;28;20057;-70
2022/01/02 05:49:27;;;;;;;0.57;0.57;;;7.80;99.90;;;;;;5034401;28;20021;-70
2022/01/02 05:51:53;;;;;;;0.20;0.20;;;7.80;99.90;;;;;;5032875;28;20072;-70
2022/01/02 05:54:18;;;;;;;4.32;1.60;;;7.70;99.90;;;;;;5033912;28;20033;-70
2022/01/02 05:56:44;;;;;;;0.10;0.10;;;7.70;99.90;;;;;;5033892;28;20030;-70
2022/01/02 05:59:10;;;;;;;0.15;0.15;;;7.70;99.90;;;;;;5032825;28;20037;-69
2022/01/02 06:01:36;;;;;;;2.17;1.00;;;7.70;99.90;;;;;;5033841;28;20044;-69
2022/01/02 06:04:01;;;;;;;0.75;0.60;;;7.70;99.90;;;;;;5033887;28;20124;-70
2022/01/02 06:06:27;;;;;;;0.40;0.40;;;7.60;99.90;;;;;;5034176;28;20076;-70
2022/01/02 06:08:53;;;;;;;0.32;0.32;;;7.60;99.90;;;;;;5033805;28;20105;-72
2022/01/02 06:11:19;;;;;;;0.47;0.47;;;7.60;99.90;;;;;;5032491;28;20486;-72
2022/01/02 06:13:45;;;;;;;0.25;0.25;;;7.60;99.90;;;;;;5032696;28;20113;-70
2022/01/02 06:16:11;;;;;;;0.70;0.70;;;7.60;99.90;;;;;;5033712;28;20034;-72
2022/01/02 06:18:38;;;;;;;3.35;1.55;;;7.50;99.90;;;;;;5015781;28;20448;-71
2022/01/02 06:21:03;;;;;;;2.25;1.55;;;7.50;99.90;;;;;;5033829;28;20037;-72
2022/01/02 06:23:30;;;;;;;0.88;0.88;;;7.50;99.90;;;;;;5032203;28;20033;-71
2022/01/02 06:25:56;;;;;;;0.45;0.45;;;7.40;99.90;;;;;;5032546;28;20120;-72
2022/01/02 06:28:22;;;;;;;0.20;0.20;;;7.40;99.90;;;;;;5033331;28;20439;-71
2022/01/02 06:30:47;;;;;;;0.20;0.20;;;7.40;99.90;;;;;;5031604;28;20112;-71
2022/01/02 06:33:13;;;;;;;0.65;0.65;;;7.30;99.90;;;;;;5032408;28;20120;-71
2022/01/02 06:35:39;;;;;;;0.88;0.40;;;7.30;99.90;;;;;;5033462;28;20116;-71
2022/01/02 06:38:17;;;;;;;0.63;0.63;;;7.40;99.90;;;;;;5032319;28;20029;-70
2022/01/02 06:40:43;;;;;;;0.10;0.10;;;7.40;99.90;;;;;;5032903;28;20098;-71
2022/01/02 06:43:09;;;;;;;0.20;0.20;;;7.30;99.90;;;;;;5033033;28;20500;-71
2022/01/02 06:45:36;;;;;;;4.68;0.95;;;7.30;99.90;;;;;;5031941;28;20048;-71
2022/01/02 06:48:03;;;;;;;0.20;0.20;;;7.40;99.90;;;;;;5032849;28;20045;-71
2022/01/02 06:50:30;;;;;;;0.30;0.30;;;7.40;99.90;;;;;;5033004;28;20033;-70
2022/01/02 06:52:56;;;;;;;0.30;0.20;;;7.20;99.90;;;;;;5031643;28;20029;-72
2022/01/02 06:55:22;;;;;;;4.47;1.35;;;7.20;99.90;;;;;;5032960;28;20033;-71
2022/01/02 06:57:47;;;;;;;1.48;1.38;;;7.10;99.90;;;;;;5031765;28;20033;-71
2022/01/02 07:00:13;;;;;;;2.20;2.00;;;7.10;99.90;;;;;;5032633;28;20057;-71
2022/01/02 07:02:39;;;;;;;0.25;0.25;;;7.20;99.90;;;;;;5031430;28;20034;-71
2022/01/02 07:05:05;;;;;;;1.80;1.70;;;7.10;99.90;;;;;;5032386;28;20082;-70
2022/01/02 07:07:31;;;;;;;0.22;0.22;;;7.10;99.90;;;;;;5032361;28;20029;-70
2022/01/02 07:09:57;;;;;;;4.85;1.00;;;7.10;99.90;;;;;;5031222;28;20080;-70
2022/01/02 07:12:23;;;;;;;0.00;0.00;;;7.10;99.90;;;;;;5031558;28;20030;-67
2022/01/02 07:14:50;;;;;;;0.85;0.85;;;7.10;99.90;;;;;;5032703;28;20049;-67
2022/01/02 07:17:16;;;;;;;0.03;0.03;;;7.10;99.90;;;;;;5031508;28;20033;-68
2022/01/02 07:19:42;;;;;;;0.90;0.90;;;7.20;99.90;;;;;;5032177;28;20034;-67
2022/01/02 07:22:08;;;;;;;1.20;1.15;;;7.20;99.90;;;;;;5032357;28;20042;-66
2022/01/02 07:24:34;;;;;;;4.10;1.35;;;7.20;99.90;;;;;;5029850;28;20052;-67
2022/01/02 07:27:00;;;;;;;0.35;0.35;;;7.20;99.90;;;;;;5031120;28;20033;-68
2022/01/02 07:29:26;;;;;;;0.47;0.30;;;7.20;99.90;;;;;;5032416;28;20021;-68
2022/01/02 07:31:52;;;;;;;0.63;0.63;;;7.20;99.90;;;;;;5028140;28;20044;-68
2022/01/02 07:34:18;;;;;;;0.08;0.08;;;7.20;99.90;;;;;;5031927;28;20029;-68
2022/01/02 07:36:46;;;;;;;1.02;0.75;;;7.20;99.90;;;;;;5030918;28;20037;-68
2022/01/02 07:39:14;;;;;;;0.57;0.57;;;7.20;99.90;;;;;;5032140;28;20048;-67
2022/01/02 07:41:41;;;;;;;1.00;0.57;;;7.20;99.90;;;;;;5030940;28;20086;-69
2022/01/02 07:44:08;;;;;;;0.10;0.10;;;7.20;99.90;;;;;;5030971;28;20171;-65
2022/01/02 07:46:34;;;;;;;1.13;1.00;;;7.30;99.90;;;;;;5030445;28;20509;-65
2022/01/02 07:49:00;;;;;;;0.10;0.10;;;7.30;99.90;;;;;;5031775;28;20026;-66
2022/01/02 07:51:26;;;;;;;0.85;0.75;;;7.30;99.90;;;;;;5030519;28;20040;-69
2022/01/02 07:53:52;;;;;;;0.47;0.47;;;7.30;99.90;;;;;;5030658;28;20034;-67
2022/01/02 07:56:18;;;;;;;0.40;0.40;;;7.30;99.90;;;;;;5032051;28;20498;-67
2022/01/02 07:58:43;;;;;;;0.40;0.40;;;7.30;99.90;;;;;;5030364;28;20505;-68
2022/01/02 08:01:09;;;;;;;0.85;0.73;;;7.30;99.90;;;;;;5030691;28;20132;-66
2022/01/02 08:03:35;;;;;;;0.47;0.47;;;7.30;99.90;;;;;;5031809;28;20068;-67
2022/01/02 08:06:01;;;;;;;0.45;0.45;;;7.30;99.90;;;;;;5031765;28;20037;-64
2022/01/02 08:08:27;;;;;;;1.85;1.75;;;7.40;99.90;;;;;;5031753;28;20105;-66
2022/01/02 08:10:53;;;;;;;0.40;0.40;;;7.30;99.90;;;;;;5030324;28;20037;-66
2022/01/02 08:13:19;;;;;;;0.28;0.28;;;7.30;99.90;;;;;;5031567;28;20034;-67
2022/01/02 08:15:46;;;;;;;3.40;1.42;;;7.40;99.90;;;;;;5031700;28;20038;-66
2022/01/02 08:18:13;;;;;;;1.00;0.93;;;7.40;99.90;;;;;;5031734;28;20243;-66
2022/01/02 08:20:41;;;;;;;2.20;2.08;;;7.40;99.90;;;;;;5031364;28;20037;-66
2022/01/02 08:23:07;;;;;;;1.90;1.80;;;7.40;99.90;;;;;;5031694;28;20390;-66
2022/01/02 08:25:33;;;;;;;0.17;0.17;;;7.40;99.90;;;;;;5031427;28;20037;-66
2022/01/02 08:27:59;;;;;;;0.90;0.90;;;7.40;99.90;;;;;;5030095;28;20022;-66
2022/01/02 08:30:24;;;;;;;0.10;0.10;;;7.50;99.90;;;;;;5031557;28;20029;-66
2022/01/02 08:32:51;;;;;;;0.65;0.65;;;7.40;99.90;;;;;;5031080;28;20041;-66
2022/01/02 08:35:17;;;;;;;0.35;0.35;;;7.40;99.90;;;;;;5030027;28;20084;-67
2022/01/02 08:37:42;;;;;;;0.50;0.50;;;7.50;99.90;;;;;;5030184;28;20429;-66
2022/01/02 08:40:09;;;;;;;3.75;1.77;;;7.50;99.90;;;;;;5031282;28;20527;-66
2022/01/02 08:42:35;;;;;;;0.10;0.10;;;7.50;99.90;;;;;;5030184;28;20091;-65
2022/01/02 08:45:00;;;;;;;0.75;0.50;;;7.60;99.90;;;;;;5030063;28;20067;-65
2022/01/02 08:47:26;;;;;;;0.63;0.63;;;7.60;99.90;;;;;;5029902;28;20125;-66
2022/01/02 08:49:52;;;;;;;0.22;0.22;;;7.60;99.90;;;;;;5031032;28;20040;-66
2022/01/02 08:52:18;;;;;;;0.00;0.00;;;7.60;99.90;;;;;;5030811;28;20502;-66
2022/01/02 08:54:44;;;;;;;0.10;0.10;;;7.70;99.90;;;;;;5033956;28;20060;-66
2022/01/02 08:57:10;;;;;;;0.17;0.17;;;7.70;99.90;;;;;;5034989;28;20068;-65
2022/01/02 08:59:36;;;;;;;0.43;0.43;;;7.80;99.90;;;;;;5035240;28;20086;-65
2022/01/02 09:02:02;;;;;;;0.00;0.00;;;7.90;99.90;;;;;;5033842;28;20044;-66
2022/01/02 09:04:28;;;;;;;0.32;0.32;;;7.90;99.90;;;;;;5034676;28;20041;-66
2022/01/02 09:06:54;;;;;;;1.95;1.67;;;7.90;99.90;;;;;;5034999;28;20036;-66
2022/01/02 09:09:24;;;;;;;0.30;0.30;;;7.90;99.90;;;;;;5035092;28;20399;-66
2022/01/02 09:11:53;;;;;;;0.25;0.25;;;7.90;99.90;;;;;;5033868;28;20088;-64
2022/01/02 09:14:19;;;;;;;0.10;0.10;;;8.00;99.90;;;;;;5035154;28;20385;-67
2022/01/02 09:16:45;;;;;;;2.40;1.25;;;8.00;99.90;;;;;;5034440;28;20374;-68
2022/01/02 09:19:14;;;;;;;0.75;0.75;;;8.10;99.90;;;;;;5034345;28;20551;-66
2022/01/02 09:21:40;;;;;;;0.28;0.28;;;8.00;99.90;;;;;;5016804;28;20030;-65
2022/01/02 09:24:06;;;;;;;0.43;0.43;;;8.00;99.90;;;;;;5033651;28;20034;-64
2022/01/02 09:26:32;;;;;;;0.10;0.10;;;8.10;99.90;;;;;;5034549;28;20461;-65
2022/01/02 09:28:58;;;;;;;0.70;0.70;;;8.10;99.90;;;;;;5034379;28;20068;-66
2022/01/02 09:31:24;;;;;;;1.15;0.68;;;8.00;99.90;;;;;;5033249;28;20048;-65
2022/01/02 09:33:53;;;;;;;0.22;0.22;;;8.00;99.90;;;;;;5032966;28;20033;-65
2022/01/02 09:36:19;;;;;;;0.32;0.32;;;8.00;99.90;;;;;;5034594;28;20025;-65
2022/01/02 09:38:44;;;;;;;0.30;0.30;;;8.00;99.90;;;;;;5030505;28;20080;-65
2022/01/02 09:41:10;;;;;;;0.32;0.32;;;8.00;99.90;;;;;;5032971;28;20040;-65
2022/01/02 09:43:36;;;;;;;0.10;0.10;;;8.00;99.90;;;;;;5034241;28;20036;-70
2022/01/02 09:46:03;;;;;;;6.93;2.17;;;8.10;99.90;;;;;;5033828;28;20124;-65
2022/01/02 09:48:30;;;;;;;1.65;1.48;;;8.20;99.90;;;;;;5032549;28;20410;-65
2022/01/02 09:50:57;;;;;;;0.10;0.10;;;8.10;99.90;;;;;;5033977;28;20122;-65
2022/01/02 09:53:32;;;;;;;0.93;0.93;;;8.10;99.90;;;;;;5032990;28;20036;-65
2022/01/02 09:55:58;;;;;;;0.47;0.30;;;8.20;99.90;;;;;;5017169;28;20037;-65
2022/01/02 09:58:26;;;;;;;0.77;0.65;;;8.20;99.90;;;;;;5033925;28;20040;-64
2022/01/02 10:00:53;;;;;;;0.10;0.10;;;8.10;99.90;;;;;;5033742;28;20030;-65
2022/01/02 10:03:19;;;;;;;0.03;0.03;;;8.20;99.90;;;;;;5015543;28;20073;-65
2022/01/02 10:06:03;;;;;;;5.25;0.88;;;8.20;99.90;;;;;;5032830;28;20029;-66
2022/01/02 10:08:34;;;;;;;1.13;1.05;;;8.30;99.90;;;;;;5033443;28;20068;-65
2022/01/02 10:11:04;;;;;;;0.57;0.57;;;8.40;99.90;;;;;;5032155;28;20037;-65
2022/01/02 10:13:43;;;;;;;0.00;0.00;;;8.40;99.90;;;;;;5016115;28;20029;-66
2022/01/02 10:16:40;;;;;;;0.35;0.35;;;8.50;99.90;;;;;;5034101;28;20076;-65
2022/01/02 10:19:36;;;;;;;1.55;1.02;;;8.50;99.90;;;;;;5024340;28;20526;-67
2022/01/02 10:22:06;;;;;;;1.27;1.20;;;8.50;99.90;;;;;;5016777;28;20999;-67
2022/01/02 10:24:40;;;;;;;0.10;0.10;;;8.50;99.90;;;;;;5032341;28;20494;-67
2022/01/02 10:27:21;;;;;;;0.10;0.10;;;8.60;99.90;;;;;;5032420;28;20041;-67
2022/01/02 10:29:58;;;;;;;0.15;0.15;;;8.70;99.90;;;;;;5033035;28;20147;-67
2022/01/02 10:32:35;;;;;;;0.00;0.00;;;8.70;99.90;;;;;;5032129;28;20382;-67
2022/01/02 10:35:35;;;;;;;0.00;0.00;;;8.70;99.90;;;;;;5033195;28;20382;-67
2022/01/02 10:38:01;;;;;;;0.00;0.00;;;8.80;99.90;;;;;;5030428;28;20529;-66
2022/01/02 10:40:40;;;;;;;2.42;2.03;;;8.80;99.90;;;;;;5033274;28;20025;-67
2022/01/02 10:43:30;;;;;;;0.20;0.20;;;8.80;99.90;;;;;;5031768;28;20104;-66
2022/01/02 10:46:06;;;;;;;0.88;0.85;;;8.70;99.90;;;;;;5031841;28;20033;-66
2022/01/02 10:48:41;;;;;;;0.10;0.10;;;8.60;99.90;;;;;;5031763;28;20064;-66
2022/01/02 10:51:16;;;;;;;0.47;0.47;;;8.60;99.90;;;;;;5032743;28;20041;-69
2022/01/02 10:53:55;;;;;;;0.60;0.55;;;8.60;99.90;;;;;;4981208;28;20060;-69
2022/01/02 10:56:27;;;;;;;0.10;0.10;;;8.70;99.90;;;;;;5033023;28;20033;-68
2022/01/02 10:58:54;;;;;;;;;;;8.70;99.90;;;;;;5032227;28;20150;-68
2022/01/02 11:01:20;;;;;;;1.48;1.17;;;8.80;99.90;;;;;;5031569;28;20050;-68
2022/01/02 11:03:47;;;;;;;0.85;0.85;;;8.80;99.90;;;;;;5031517;28;20504;-67
2022/01/02 11:06:29;;;;;;;0.45;0.45;;;8.70;99.90;;;;;;5032400;28;20033;-67
2022/01/02 11:08:59;;;;;;;1.27;1.17;;;8.70;99.90;;;;;;5032527;28;20035;-67
2022/01/02 11:11:25;;;;;;;0.45;0.45;;;8.70;99.90;;;;;;5032482;28;20390;-67
2022/01/02 11:13:51;;;;;;;0.38;0.38;;;8.70;99.90;;;;;;5031148;28;20126;-67
2022/01/02 11:16:19;;;;;;;0.70;0.70;;;8.70;99.90;;;;;;5032207;28;20482;-67
2022/01/02 11:18:47;;;;;;;0.28;0.28;;;8.80;99.90;;;;;;5031423;28;20040;-67
2022/01/02 11:21:14;;;;;;;0.20;0.20;;;8.80;99.90;;;;;;5031536;28;20505;-67
2022/01/02 11:24:06;;;;;;;0.73;0.68;;;8.90;99.90;;;;;;5032525;28;20037;-67
2022/01/02 11:26:46;;;;;;;0.90;0.85;;;9.00;99.90;;;;;;5031222;28;20421;-67
2022/01/02 11:29:12;;;;;;;0.00;0.00;;;9.10;99.90;;;;;;5031660;28;20462;-67
2022/01/02 11:31:40;;;;;;;0.38;0.38;;;9.40;99.90;;;;;;5030869;28;20038;-67
2022/01/02 11:34:25;;;;;;;0.10;0.10;;;9.50;99.90;;;;;;5030903;28;20037;-67
2022/01/02 11:37:12;;;;;;;0.05;0.05;;;9.60;99.90;;;;;;5014566;28;20433;-68
2022/01/02 11:39:55;;;;;;;0.28;0.28;;;9.70;99.90;;;;;;5030848;28;20075;-68
2022/01/02 11:42:38;;;;;;;0.30;0.30;;;9.80;99.90;;;;;;5012285;28;20037;-66
2022/01/02 11:45:24;;;;;;;0.20;0.20;;;9.80;99.90;;;;;;5021314;28;20048;-68
2022/01/02 11:47:50;;;;;;;0.00;0.00;;;9.80;99.90;;;;;;5028001;28;20077;-67
2022/01/02 11:50:30;;;;;;;0.00;0.00;;;9.90;99.90;;;;;;5031677;28;20076;-66
2022/01/02 11:53:18;;;;;;;0.10;0.10;;;9.90;99.90;;;;;;5031885;28;20045;-65
2022/01/02 11:55:48;;;;;;;0.47;0.47;;;9.90;99.90;;;;;;5030725;28;20033;-67
2022/01/02 11:58:54;;;;;;;0.00;0.00;;;9.90;99.90;;;;;;5031779;28;20028;-65
2022/01/02 12:01:50;;;;;;;0.50;0.50;;;9.90;99.90;;;;;;5031486;28;20083;-66
2022/01/02 12:04:16;;;;;;;1.13;1.00;;;9.80;99.90;;;;;;5030489;28;20040;-65
2022/01/02 12:06:44;;;;;;;0.13;0.13;;;9.90;99.90;;;;;;5031793;28;20041;-65
2022/01/02 12:09:34;;;;;;;0.25;0.25;;;10.00;99.90;;;;;;5030246;28;20025;-66
2022/01/02 12:12:06;;;;;;;0.00;0.00;;;10.10;99.90;;;;;;5031737;28;20029;-66
2022/01/02 12:14:32;;;;;;;10.23;1.75;;;10.30;99.90;;;;;;5031560;28;20037;-66
2022/01/02 12:17:10;;;;;;;0.17;0.17;;;10.30;99.90;;;;;;5030562;28;20029;-66
2022/01/02 12:20:04;;;;;;;0.10;0.10;;;10.30;99.90;;;;;;5030373;28;20172;-66
2022/01/02 12:22:46;;;;;;;9.30;0.95;;;10.40;99.90;;;;;;5031732;28;20553;-66
2022/01/02 12:25:16;;;;;;;0.55;0.38;;;10.50;99.90;;;;;;5031618;28;20112;-65
2022/01/02 12:27:55;;;;;;;0.10;0.10;;;10.50;99.90;;;;;;5030780;28;20022;-65
2022/01/02 12:30:21;;;;;;;0.00;0.00;;;10.50;99.90;;;;;;5030576;28;20036;-65
2022/01/02 12:32:49;;;;;;;0.70;0.70;;;10.60;99.90;;;;;;5030090;28;20029;-66
2022/01/02 12:35:16;;;;;;;0.10;0.10;;;10.60;99.90;;;;;;5031537;28;20036;-67
2022/01/02 12:37:45;;;;;;;1.98;1.30;;;10.70;99.90;;;;;;5030218;28;20042;-64
2022/01/02 12:40:16;;;;;;;0.15;0.15;;;10.70;99.90;;;;;;5031149;28;20030;-65
2022/01/02 12:42:43;;;;;;;0.00;0.00;;;10.80;99.90;;;;;;5030185;28;20038;-65
2022/01/02 12:45:09;;;;;;;0.20;0.20;;;10.90;99.90;;;;;;5030150;28;20041;-64
2022/01/02 12:47:36;;;;;;;0.10;0.10;;;10.90;99.90;;;;;;5031330;28;20486;-66
2022/01/02 12:50:03;;;;;;;0.88;0.85;;;11.00;99.90;;;;;;5031364;28;20048;-67
2022/01/02 12:52:28;;;;;;;0.13;0.13;;;11.00;99.90;;;;;;5031519;28;20038;-68
2022/01/02 12:54:54;;;;;;;0.00;0.00;;;11.10;99.90;;;;;;5031447;28;20033;-67
2022/01/02 12:57:22;;;;;;;0.55;0.55;;;11.20;99.90;;;;;;5031557;28;20040;-67
2022/01/02 12:59:56;;;;;;;0.00;0.00;;;11.20;99.90;;;;;;5031561;28;20434;-67
2022/01/02 13:02:29;;;;;;;0.30;0.30;;;11.40;99.90;;;;;;5030364;28;20025;-66
2022/01/02 13:05:00;;;;;;;0.43;0.43;;;11.50;99.90;;;;;;5031186;28;20116;-67
2022/01/02 13:07:32;;;;;;;0.45;0.45;;;11.60;99.90;;;;;;5031068;28;20021;-67
2022/01/02 13:10:04;;;;;;;1.95;1.08;;;11.80;99.90;;;;;;5029775;28;20041;-68